Time;durP1;ratioP1;P1;durP2;ratioP2;P2;SDS_P1;SDS_P2;PMS_P1;PMS_P2;Temp;Humidity;BMP_temperature;BMP_pressure;BME280_temperature;BME280_humidity;BME280_pressure;Samples;Min_cycle;Max_cycle;Signal;HPM_P1;HPM_P2
2023/09/22 00:00:04;;;;;;;2.20;2.00;;;13.60;99.90;;;;;;5062732;28;20461;-88
2023/09/22 00:02:30;;;;;;;7.20;2.00;;;13.50;99.90;;;;;;5097051;28;20212;-87
2023/09/22 00:04:56;;;;;;;3.93;1.93;;;13.50;99.90;;;;;;5077386;28;20893;-87
2023/09/22 00:07:21;;;;;;;2.30;1.73;;;13.40;99.90;;;;;;5061838;28;20417;-87
2023/09/22 00:09:47;;;;;;;2.30;2.00;;;13.30;99.90;;;;;;5078415;28;20587;-87
2023/09/22 00:12:12;;;;;;;3.10;2.13;;;13.30;99.90;;;;;;5078822;28;20254;-86
2023/09/22 00:14:38;;;;;;;4.00;2.30;;;13.20;99.90;;;;;;5078789;28;20172;-87
2023/09/22 00:17:04;;;;;;;4.37;2.50;;;13.10;99.90;;;;;;5078642;28;20522;-87
2023/09/22 00:19:31;;;;;;;2.60;2.20;;;13.00;99.90;;;;;;5097017;28;20553;-87
2023/09/22 00:21:56;;;;;;;5.00;1.90;;;13.00;99.90;;;;;;5076577;28;20510;-87
2023/09/22 00:24:22;;;;;;;2.00;1.80;;;13.00;99.90;;;;;;5058708;28;20465;-87
2023/09/22 00:26:51;;;;;;;3.33;2.00;;;12.80;99.90;;;;;;5041574;28;20185;-87
2023/09/22 00:29:17;;;;;;;5.00;2.10;;;12.80;99.90;;;;;;5059039;28;20419;-87
2023/09/22 00:31:43;;;;;;;2.97;2.00;;;12.70;99.90;;;;;;5041978;28;20419;-87
2023/09/22 00:34:08;;;;;;;3.20;2.10;;;12.60;99.90;;;;;;5076100;28;20224;-87
2023/09/22 00:36:34;;;;;;;2.87;2.30;;;12.50;99.90;;;;;;5041804;28;20181;-87
2023/09/22 00:39:00;;;;;;;6.47;2.70;;;12.50;99.90;;;;;;5057679;28;20177;-87
2023/09/22 00:41:26;;;;;;;3.03;2.00;;;12.40;99.90;;;;;;5058501;28;20270;-87
2023/09/22 00:43:51;;;;;;;4.90;2.17;;;12.30;99.90;;;;;;5075859;28;20414;-87
2023/09/22 00:46:23;;;;;;;5.13;2.13;;;12.20;99.90;;;;;;5058049;28;20871;-86
2023/09/22 00:48:49;;;;;;;3.47;2.60;;;12.20;99.90;;;;;;5057658;28;20202;-87
2023/09/22 00:51:19;;;;;;;3.13;2.17;;;12.10;99.90;;;;;;5057716;28;20419;-87
2023/09/22 00:53:46;;;;;;;3.13;2.20;;;12.10;99.90;;;;;;5041145;28;20470;-87
2023/09/22 00:56:12;;;;;;;7.17;3.53;;;12.00;99.90;;;;;;5058183;28;20415;-87
2023/09/22 00:58:38;;;;;;;2.90;2.30;;;11.90;99.90;;;;;;5075442;28;20475;-87
2023/09/22 01:01:04;;;;;;;10.70;2.80;;;11.90;99.90;;;;;;5041157;28;20543;-87
2023/09/22 01:03:30;;;;;;;4.47;2.30;;;11.90;99.90;;;;;;5057938;28;20419;-87
2023/09/22 01:05:56;;;;;;;6.63;2.70;;;11.90;99.90;;;;;;5053917;28;20434;-86
2023/09/22 01:08:22;;;;;;;5.07;2.80;;;11.80;99.90;;;;;;5095835;28;20425;-87
2023/09/22 01:10:48;;;;;;;3.63;2.43;;;11.70;99.90;;;;;;5074601;28;20279;-87
2023/09/22 01:13:14;;;;;;;7.33;3.60;;;11.70;99.90;;;;;;5075449;28;20208;-87
2023/09/22 01:15:41;;;;;;;2.33;2.13;;;11.60;99.90;;;;;;5074600;28;20815;-87
2023/09/22 01:18:07;;;;;;;3.33;2.80;;;11.60;99.90;;;;;;5057341;28;20411;-87
2023/09/22 01:20:42;;;;;;;2.90;2.60;;;11.50;99.90;;;;;;5075035;28;20880;-87
2023/09/22 01:23:08;;;;;;;2.47;2.00;;;11.50;99.90;;;;;;5075310;28;20470;-87
2023/09/22 01:25:34;;;;;;;4.00;2.50;;;11.40;99.90;;;;;;5057718;28;20775;-89
2023/09/22 01:27:59;;;;;;;5.83;2.87;;;11.40;99.90;;;;;;5073969;28;20422;-87
2023/09/22 01:30:25;;;;;;;5.20;2.20;;;11.30;99.90;;;;;;5040832;28;20637;-88
2023/09/22 01:32:51;;;;;;;3.70;1.80;;;11.30;99.90;;;;;;5094063;28;20208;-87
2023/09/22 01:35:17;;;;;;;3.93;2.23;;;11.20;99.90;;;;;;5095057;28;20180;-88
2023/09/22 01:37:55;;;;;;;8.47;2.20;;;11.20;99.90;;;;;;5076897;28;20425;-87
2023/09/22 01:40:20;;;;;;;5.00;2.50;;;11.20;99.90;;;;;;5096844;28;20176;-88
2023/09/22 01:42:46;;;;;;;4.20;2.50;;;11.10;99.90;;;;;;5077320;28;20445;-88
2023/09/22 01:45:12;;;;;;;3.50;2.40;;;11.10;99.90;;;;;;5077213;28;20614;-88
2023/09/22 01:47:40;;;;;;;3.80;2.13;;;11.10;99.90;;;;;;5060533;28;20181;-88
2023/09/22 01:50:07;;;;;;;3.30;2.40;;;11.10;99.90;;;;;;5069305;28;20196;-88
2023/09/22 01:52:32;;;;;;;4.03;2.90;;;11.10;99.90;;;;;;5057001;28;20566;-88
2023/09/22 01:54:58;;;;;;;4.27;2.80;;;11.00;99.90;;;;;;5057198;28;20920;-88
2023/09/22 01:57:24;;;;;;;3.50;2.60;;;11.00;99.90;;;;;;5056689;28;20181;-88
2023/09/22 01:59:49;;;;;;;3.30;2.33;;;11.00;99.90;;;;;;5057187;28;20271;-88
2023/09/22 02:02:15;;;;;;;7.33;2.90;;;11.00;99.90;;;;;;5040734;28;20218;-88
2023/09/22 02:04:40;;;;;;;6.50;3.20;;;10.90;99.90;;;;;;5057695;28;20184;-89
2023/09/22 02:07:07;;;;;;;3.83;2.50;;;10.90;99.90;;;;;;5069420;28;20184;-89
2023/09/22 02:09:33;;;;;;;5.70;2.72;;;10.90;99.90;;;;;;5096122;28;20172;-88
2023/09/22 02:11:59;;;;;;;4.43;2.40;;;10.90;99.90;;;;;;5074325;28;20245;-88
2023/09/22 02:14:25;;;;;;;3.70;2.53;;;10.90;99.90;;;;;;5062056;28;20426;-88
2023/09/22 02:16:50;;;;;;;9.30;3.50;;;10.90;99.90;;;;;;5076722;28;20188;-88
2023/09/22 02:19:16;;;;;;;6.07;2.60;;;11.00;99.90;;;;;;5095167;28;20180;-88
2023/09/22 02:21:42;;;;;;;5.73;2.47;;;10.90;99.90;;;;;;5059563;28;20741;-89
2023/09/22 02:24:07;;;;;;;2.60;2.40;;;10.90;99.90;;;;;;5077379;28;20180;-87
2023/09/22 02:26:34;;;;;;;6.97;2.40;;;10.90;99.90;;;;;;5083003;28;20654;-88
2023/09/22 02:28:59;;;;;;;4.85;2.42;;;10.80;99.90;;;;;;5076448;28;20225;-88
2023/09/22 02:31:26;;;;;;;6.60;2.53;;;10.80;99.90;;;;;;5076911;28;20213;-89
2023/09/22 02:33:52;;;;;;;2.97;2.13;;;10.80;99.90;;;;;;5060144;28;20211;-89
2023/09/22 02:36:18;;;;;;;2.93;2.43;;;10.70;99.90;;;;;;5077082;28;20199;-89
2023/09/22 02:38:43;;;;;;;4.80;2.27;;;10.70;99.90;;;;;;5094593;28;20433;-89
2023/09/22 02:41:14;;;;;;;6.77;2.47;;;10.60;99.90;;;;;;5095198;28;20613;-88
2023/09/22 02:43:39;;;;;;;4.05;2.63;;;10.60;99.90;;;;;;5094298;28;20176;-88
2023/09/22 02:46:05;;;;;;;5.20;2.20;;;10.60;99.90;;;;;;5094735;28;20245;-87
2023/09/22 02:48:31;;;;;;;4.30;2.57;;;10.60;99.90;;;;;;5059845;28;20184;-88
2023/09/22 02:50:57;;;;;;;6.27;2.80;;;10.60;99.90;;;;;;5059409;28;20612;-88
2023/09/22 02:53:23;;;;;;;3.30;2.53;;;10.60;99.90;;;;;;5076263;28;20457;-87
2023/09/22 02:55:49;;;;;;;3.67;2.80;;;10.60;99.90;;;;;;5093804;28;20419;-87
2023/09/22 02:58:14;;;;;;;3.07;2.80;;;10.60;99.90;;;;;;5075881;28;20328;-88
2023/09/22 03:00:44;;;;;;;5.70;2.40;;;10.50;99.90;;;;;;5059578;28;20180;-87
2023/09/22 03:03:12;;;;;;;4.13;2.50;;;10.50;99.90;;;;;;5076509;28;20188;-88
2023/09/22 03:05:38;;;;;;;9.07;2.80;;;10.60;99.90;;;;;;5094169;28;20176;-88
2023/09/22 03:08:04;;;;;;;5.20;2.83;;;10.60;99.90;;;;;;5076311;28;20200;-87
2023/09/22 03:10:31;;;;;;;6.50;2.97;;;10.70;99.90;;;;;;5059505;28;20442;-88
2023/09/22 03:12:56;;;;;;;4.45;2.70;;;10.80;99.90;;;;;;5059570;28;20461;-88
2023/09/22 03:15:22;;;;;;;9.13;3.07;;;10.80;99.90;;;;;;5076401;28;20705;-88
2023/09/22 03:17:48;;;;;;;8.90;2.97;;;10.80;99.90;;;;;;5076188;28;20177;-89
2023/09/22 03:20:14;;;;;;;3.33;2.63;;;10.90;99.90;;;;;;5094276;28;20451;-88
2023/09/22 03:22:40;;;;;;;2.53;2.33;;;11.00;99.90;;;;;;5075829;28;20293;-88
2023/09/22 03:25:06;;;;;;;2.97;2.60;;;11.00;99.90;;;;;;5093484;28;20411;-88
2023/09/22 03:27:35;;;;;;;5.90;3.37;;;11.00;99.90;;;;;;5075827;28;20175;-88
2023/09/22 03:30:07;;;;;;;4.88;3.20;;;11.10;99.90;;;;;;5094277;28;20443;-88
2023/09/22 03:32:38;;;;;;;3.95;2.60;;;11.20;99.90;;;;;;5076194;28;20270;-87
2023/09/22 03:35:07;;;;;;;4.40;3.37;;;11.30;99.90;;;;;;5075910;28;20181;-88
2023/09/22 03:37:35;;;;;;;7.25;3.00;;;11.30;99.90;;;;;;5094435;28;20506;-88
2023/09/22 03:40:13;;;;;;;5.50;3.40;;;11.40;99.90;;;;;;5062696;28;20663;-88
2023/09/22 03:42:40;;;;;;;5.33;3.40;;;11.40;99.90;;;;;;5098114;28;20243;-88
2023/09/22 03:45:07;;;;;;;6.00;3.27;;;11.40;99.90;;;;;;5046319;28;20930;-88
2023/09/22 03:47:33;;;;;;;3.53;3.10;;;11.50;99.90;;;;;;5079264;28;20418;-87
2023/09/22 03:49:58;;;;;;;5.70;3.70;;;11.50;99.90;;;;;;5060909;28;20429;-88
2023/09/22 03:52:25;;;;;;;3.73;2.67;;;11.50;99.90;;;;;;5080149;28;20561;-88
2023/09/22 03:54:50;;;;;;;6.13;2.67;;;11.60;99.90;;;;;;5059496;28;20177;-88
2023/09/22 03:57:16;;;;;;;5.47;2.80;;;11.60;99.90;;;;;;5059561;28;20832;-88
2023/09/22 03:59:42;;;;;;;4.23;2.73;;;11.60;99.90;;;;;;5042598;28;20193;-87
2023/09/22 04:02:07;;;;;;;3.53;2.77;;;11.60;99.90;;;;;;5042754;28;20188;-87
2023/09/22 04:04:33;;;;;;;6.77;2.70;;;11.60;99.90;;;;;;5077055;28;20177;-87
2023/09/22 04:06:59;;;;;;;4.33;2.83;;;11.70;99.90;;;;;;5076780;28;20250;-88
2023/09/22 04:09:25;;;;;;;4.80;2.90;;;11.70;99.90;;;;;;5077142;28;20210;-87
2023/09/22 04:11:52;;;;;;;4.30;2.53;;;11.80;99.90;;;;;;5059078;28;20728;-88
2023/09/22 04:14:19;;;;;;;5.80;2.53;;;11.70;99.90;;;;;;5059376;28;20438;-87
2023/09/22 04:16:44;;;;;;;4.65;2.95;;;11.80;99.90;;;;;;5076900;28;20434;-87
2023/09/22 04:19:10;;;;;;;6.03;2.73;;;11.80;99.90;;;;;;5059477;28;20196;-87
2023/09/22 04:21:42;;;;;;;3.97;3.13;;;11.80;99.90;;;;;;5079378;28;20250;-87
2023/09/22 04:24:12;;;;;;;4.90;2.80;;;11.80;99.90;;;;;;5074693;28;20914;-87
2023/09/22 04:26:42;;;;;;;4.30;3.00;;;11.90;99.90;;;;;;5098438;28;20512;-87
2023/09/22 04:29:11;;;;;;;5.47;3.17;;;11.90;99.90;;;;;;5078625;28;20415;-87
2023/09/22 04:31:37;;;;;;;3.10;2.77;;;11.90;99.90;;;;;;5078933;28;20460;-87
2023/09/22 04:34:03;;;;;;;7.93;3.00;;;11.90;99.90;;;;;;5096359;28;20526;-87
2023/09/22 04:36:30;;;;;;;4.00;3.10;;;11.90;99.90;;;;;;5061490;28;20450;-87
2023/09/22 04:38:56;;;;;;;10.55;3.33;;;11.90;99.90;;;;;;5096651;28;20172;-87
2023/09/22 04:41:22;;;;;;;6.27;3.40;;;12.00;99.90;;;;;;5078563;28;20655;-86
2023/09/22 04:43:47;;;;;;;7.30;3.20;;;11.90;99.90;;;;;;5061749;28;20274;-87
2023/09/22 04:46:16;;;;;;;2.93;2.57;;;11.90;99.90;;;;;;5078463;28;20608;-87
2023/09/22 04:48:42;;;;;;;4.27;3.07;;;12.00;99.90;;;;;;5102028;28;20394;-87
2023/09/22 04:51:07;;;;;;;6.83;2.87;;;12.00;99.90;;;;;;5095462;28;20886;-87
2023/09/22 04:53:33;;;;;;;4.73;3.37;;;12.00;99.90;;;;;;5093498;28;20287;-87
2023/09/22 04:56:04;;;;;;;6.10;2.60;;;12.00;99.90;;;;;;5085735;28;20188;-86
2023/09/22 04:58:33;;;;;;;4.53;2.90;;;12.10;99.90;;;;;;5058094;28;20438;-86
2023/09/22 05:01:01;;;;;;;11.03;2.50;;;12.20;99.90;;;;;;5077884;28;20436;-87
2023/09/22 05:03:30;;;;;;;3.17;2.87;;;12.10;99.90;;;;;;5095984;28;20499;-87
2023/09/22 05:06:06;;;;;;;6.40;2.70;;;12.00;99.90;;;;;;5061407;28;20429;-87
2023/09/22 05:08:33;;;;;;;4.10;2.50;;;12.00;99.90;;;;;;5078451;28;20871;-86
2023/09/22 05:11:03;;;;;;;4.30;2.67;;;11.90;99.90;;;;;;5095705;28;20921;-87
2023/09/22 05:13:29;;;;;;;3.33;2.70;;;11.80;99.90;;;;;;5084790;28;20465;-87
2023/09/22 05:15:54;;;;;;;7.23;3.20;;;11.80;99.90;;;;;;5040936;28;20431;-88
2023/09/22 05:18:20;;;;;;;5.10;2.50;;;11.80;99.90;;;;;;5045174;28;20185;-87
2023/09/22 05:20:45;;;;;;;3.20;2.23;;;11.70;99.90;;;;;;5077166;28;20571;-88
2023/09/22 05:23:11;;;;;;;2.80;2.27;;;11.70;99.90;;;;;;5077031;28;20232;-87
2023/09/22 05:25:40;;;;;;;3.93;2.50;;;11.60;99.90;;;;;;5077516;28;20274;-87
2023/09/22 05:28:08;;;;;;;3.30;3.00;;;11.60;99.90;;;;;;5077272;28;20180;-87
2023/09/22 05:30:36;;;;;;;5.57;3.03;;;11.50;99.90;;;;;;5097183;28;20556;-87
2023/09/22 05:33:06;;;;;;;6.55;2.90;;;11.50;99.90;;;;;;5043197;28;20997;-87
2023/09/22 05:35:32;;;;;;;5.63;2.53;;;11.40;99.90;;;;;;5058537;28;20179;-87
2023/09/22 05:37:58;;;;;;;5.50;2.40;;;11.40;99.90;;;;;;5074422;28;20671;-88
2023/09/22 05:40:26;;;;;;;7.43;3.45;;;11.40;99.90;;;;;;5057489;28;20441;-87
2023/09/22 05:42:51;;;;;;;6.82;2.90;;;11.40;99.90;;;;;;5074871;28;20222;-88
2023/09/22 05:45:17;;;;;;;3.40;2.50;;;11.40;99.90;;;;;;5074137;28;20612;-87
2023/09/22 05:47:42;;;;;;;6.50;2.70;;;11.40;99.90;;;;;;5074139;28;20655;-87
2023/09/22 05:50:10;;;;;;;7.63;3.20;;;11.30;99.90;;;;;;5074042;28;20603;-88
2023/09/22 05:52:37;;;;;;;5.18;3.17;;;11.30;99.90;;;;;;5073766;28;20300;-87
2023/09/22 05:55:04;;;;;;;4.40;3.07;;;11.30;99.90;;;;;;5056550;28;20609;-87
2023/09/22 05:57:30;;;;;;;7.73;3.27;;;11.30;99.90;;;;;;5040172;28;20427;-86
2023/09/22 05:59:57;;;;;;;3.80;3.10;;;11.40;99.90;;;;;;5057334;28;20434;-88
2023/09/22 06:02:23;;;;;;;4.53;3.08;;;11.40;99.90;;;;;;5074761;28;20291;-87
2023/09/22 06:04:52;;;;;;;5.03;2.93;;;11.40;99.90;;;;;;5074732;28;20181;-87
2023/09/22 06:07:20;;;;;;;3.17;2.93;;;11.30;99.90;;;;;;5057236;28;20787;-87
2023/09/22 06:09:45;;;;;;;11.50;3.43;;;11.30;99.90;;;;;;5040317;28;20845;-87
2023/09/22 06:12:11;;;;;;;4.60;3.00;;;11.30;99.90;;;;;;5055422;28;20473;-87
2023/09/22 06:14:39;;;;;;;3.73;2.80;;;11.30;99.90;;;;;;5077177;28;20180;-87
2023/09/22 06:17:04;;;;;;;4.80;3.50;;;11.30;99.90;;;;;;5060249;28;20184;-87
2023/09/22 06:19:30;;;;;;;4.97;4.17;;;11.30;99.90;;;;;;5094865;28;20241;-86
2023/09/22 06:21:56;;;;;;;6.87;3.27;;;11.40;99.90;;;;;;5094141;28;20245;-89
2023/09/22 06:24:22;;;;;;;3.80;3.20;;;11.40;99.90;;;;;;5059851;28;20195;-87
2023/09/22 06:26:47;;;;;;;5.17;3.63;;;11.40;99.90;;;;;;5094496;28;20409;-87
2023/09/22 06:29:13;;;;;;;5.80;3.60;;;11.40;99.90;;;;;;5095020;28;20176;-87
2023/09/22 06:31:38;;;;;;;6.10;3.60;;;11.40;99.90;;;;;;5077808;28;20179;-87
2023/09/22 06:34:07;;;;;;;7.60;3.73;;;11.40;99.90;;;;;;5076812;28;20205;-87
2023/09/22 06:36:33;;;;;;;4.77;3.17;;;11.50;99.90;;;;;;5076640;28;20179;-87
2023/09/22 06:39:03;;;;;;;3.53;3.00;;;11.50;99.90;;;;;;5094764;28;20509;-88
2023/09/22 06:41:29;;;;;;;6.30;3.17;;;11.60;99.90;;;;;;5078049;28;20509;-87
2023/09/22 06:43:54;;;;;;;5.63;2.77;;;11.60;99.90;;;;;;5095394;28;20203;-90
2023/09/22 06:46:20;;;;;;;7.33;3.07;;;11.70;99.90;;;;;;5076837;28;20551;-90
2023/09/22 06:48:46;;;;;;;3.23;2.60;;;11.70;99.90;;;;;;5095021;28;20191;-90
2023/09/22 06:51:16;;;;;;;3.83;2.90;;;11.80;99.90;;;;;;5059978;28;20241;-90
2023/09/22 06:53:42;;;;;;;5.50;3.10;;;12.00;99.90;;;;;;5077341;28;20204;-90
2023/09/22 06:56:11;;;;;;;3.57;2.90;;;12.10;99.90;;;;;;5094188;28;20413;-90
2023/09/22 06:58:40;;;;;;;4.10;3.23;;;12.20;99.90;;;;;;5077449;28;20628;-91
2023/09/22 07:01:09;;;;;;;6.13;2.77;;;12.30;99.90;;;;;;5094769;28;20410;-91
2023/09/22 07:03:34;;;;;;;5.63;3.20;;;12.30;99.90;;;;;;5077422;28;20567;-91
2023/09/22 07:06:01;;;;;;;6.20;2.93;;;12.40;99.90;;;;;;5061563;28;20442;-89
2023/09/22 07:08:28;;;;;;;3.87;3.23;;;12.50;99.90;;;;;;5063712;28;20245;-91
2023/09/22 07:11:00;;;;;;;3.53;2.70;;;12.60;99.90;;;;;;5079913;28;20467;-90
2023/09/22 07:13:26;;;;;;;4.87;3.27;;;12.70;99.90;;;;;;5096973;28;20550;-90
2023/09/22 07:15:53;;;;;;;5.43;2.37;;;12.70;99.90;;;;;;5060967;28;20435;-90
2023/09/22 07:18:19;;;;;;;8.43;2.30;;;12.80;99.90;;;;;;5060556;28;20518;-90
2023/09/22 07:20:46;;;;;;;2.50;1.97;;;12.90;99.90;;;;;;5060678;28;20438;-89
2023/09/22 07:23:12;;;;;;;4.80;2.30;;;13.00;99.90;;;;;;5043658;28;20242;-89
2023/09/22 07:25:38;;;;;;;2.60;2.40;;;13.00;99.90;;;;;;5060802;28;20411;-90
2023/09/22 07:28:04;;;;;;;3.30;1.97;;;13.10;99.90;;;;;;5043832;28;20418;-90
2023/09/22 07:30:30;;;;;;;3.40;2.40;;;13.20;99.90;;;;;;5062261;28;20177;-91
2023/09/22 07:32:55;;;;;;;2.80;2.13;;;13.20;99.90;;;;;;5080295;28;20458;-91
2023/09/22 07:35:21;;;;;;;2.30;2.10;;;13.30;99.90;;;;;;5098477;28;20176;-91
2023/09/22 07:37:47;;;;;;;2.87;1.40;;;13.30;99.90;;;;;;5098319;28;20188;-90
2023/09/22 07:40:13;;;;;;;5.20;2.00;;;13.40;99.90;;;;;;5063442;28;20199;-91
2023/09/22 07:42:41;;;;;;;7.07;1.70;;;13.50;99.90;;;;;;5080145;28;20694;-91
2023/09/22 07:45:08;;;;;;;4.10;1.60;;;13.50;99.90;;;;;;5098024;28;20437;-91
2023/09/22 07:47:34;;;;;;;1.70;1.60;;;13.60;99.90;;;;;;5063588;28;20454;-91
2023/09/22 07:50:00;;;;;;;1.67;1.53;;;13.60;99.90;;;;;;5080523;28;20501;-92
2023/09/22 07:52:26;;;;;;;1.93;1.53;;;13.70;99.90;;;;;;5080235;28;20505;-91
2023/09/22 07:54:53;;;;;;;2.43;1.70;;;13.90;99.90;;;;;;5080098;28;20908;-91
2023/09/22 07:57:19;;;;;;;2.80;1.70;;;14.00;99.90;;;;;;5080304;28;20624;-90
2023/09/22 07:59:44;;;;;;;2.60;2.00;;;14.00;99.90;;;;;;5079656;28;20418;-91
2023/09/22 08:02:10;;;;;;;3.70;1.90;;;14.20;99.90;;;;;;5063289;28;20176;-90
2023/09/22 08:04:36;;;;;;;2.10;1.70;;;14.30;99.90;;;;;;5080640;28;20176;-90
2023/09/22 08:07:05;;;;;;;6.47;2.20;;;14.40;99.90;;;;;;5080179;28;20206;-90
2023/09/22 08:09:31;;;;;;;3.47;1.27;;;14.50;99.90;;;;;;5047917;28;20212;-89
2023/09/22 08:11:57;;;;;;;1.83;1.40;;;14.70;99.90;;;;;;5062975;28;20940;-91
2023/09/22 08:14:24;;;;;;;2.27;1.30;;;14.80;99.90;;;;;;5063627;28;20481;-91
2023/09/22 08:16:50;;;;;;;2.70;1.10;;;14.90;99.90;;;;;;5080494;28;20172;-90
2023/09/22 08:19:16;;;;;;;4.10;1.50;;;14.90;99.90;;;;;;5079438;28;20471;-91
2023/09/22 08:21:42;;;;;;;1.10;0.93;;;15.00;99.90;;;;;;5079561;28;20449;-90
2023/09/22 08:24:08;;;;;;;3.80;1.47;;;15.00;99.90;;;;;;5076800;28;20188;-90
2023/09/22 08:26:34;;;;;;;2.33;1.00;;;15.10;99.90;;;;;;5055713;28;20480;-91
2023/09/22 08:29:00;;;;;;;2.10;1.43;;;15.20;99.90;;;;;;5080052;28;20453;-91
2023/09/22 08:31:26;;;;;;;1.50;1.00;;;15.30;99.90;;;;;;5079714;28;20410;-90
2023/09/22 08:33:53;;;;;;;2.80;1.20;;;15.30;99.90;;;;;;5079433;28;20647;-91
2023/09/22 08:36:19;;;;;;;1.67;1.20;;;15.40;99.90;;;;;;5062708;28;20420;-91
2023/09/22 08:38:47;;;;;;;6.63;1.43;;;15.50;99.90;;;;;;5097292;28;20467;-91
2023/09/22 08:41:13;;;;;;;1.50;0.90;;;15.70;99.90;;;;;;5099071;28;20410;-90
2023/09/22 08:43:40;;;;;;;1.63;1.33;;;16.00;99.90;;;;;;5087943;28;20426;-90
2023/09/22 08:46:06;;;;;;;2.87;0.93;;;16.10;99.90;;;;;;5099343;28;20410;-89
2023/09/22 08:48:31;;;;;;;3.30;0.90;;;16.20;99.90;;;;;;5097123;28;20403;-89
2023/09/22 08:50:57;;;;;;;1.67;1.03;;;16.30;99.90;;;;;;5079036;28;20180;-89
2023/09/22 08:53:23;;;;;;;2.50;1.03;;;16.30;99.90;;;;;;5078548;28;20216;-89
2023/09/22 08:55:51;;;;;;;2.80;0.90;;;16.70;99.90;;;;;;5064505;28;20430;-90
2023/09/22 08:58:18;;;;;;;1.83;0.80;;;16.80;99.90;;;;;;5082101;28;20173;-89
2023/09/22 09:00:47;;;;;;;2.67;1.10;;;17.30;99.90;;;;;;5081006;28;20396;-89
2023/09/22 09:03:14;;;;;;;2.60;0.90;;;17.60;99.90;;;;;;5078912;28;20442;-90
2023/09/22 09:05:39;;;;;;;4.10;1.03;;;18.00;99.90;;;;;;5096302;28;20400;-88
2023/09/22 09:08:11;;;;;;;1.80;1.00;;;18.40;99.90;;;;;;5078101;28;20377;-89
2023/09/22 09:10:38;;;;;;;1.80;1.00;;;18.70;99.90;;;;;;5078202;28;20184;-88
2023/09/22 09:13:06;;;;;;;2.20;1.27;;;18.60;99.90;;;;;;5077782;28;20555;-88
2023/09/22 09:15:47;;;;;;;1.93;1.13;;;18.40;99.90;;;;;;5077826;28;20782;-89
2023/09/22 09:18:18;;;;;;;5.50;1.33;;;19.00;99.90;;;;;;5077313;28;20408;-87
2023/09/22 09:20:45;;;;;;;1.20;0.80;;;19.20;99.90;;;;;;5065492;28;20513;-89
2023/09/22 09:23:19;;;;;;;3.87;0.93;;;19.10;99.90;;;;;;5094967;28;21024;-89
2023/09/22 09:25:47;;;;;;;2.37;0.83;;;18.30;99.90;;;;;;5094863;28;20399;-88
2023/09/22 09:28:14;;;;;;;1.83;0.90;;;17.90;99.90;;;;;;5094923;28;20407;-86
2023/09/22 09:30:57;;;;;;;1.13;0.80;;;17.60;99.90;;;;;;5060419;28;20891;-87
2023/09/22 09:33:25;;;;;;;1.37;0.80;;;17.30;99.90;;;;;;5095160;28;20461;-88
2023/09/22 09:35:52;;;;;;;2.67;0.93;;;17.20;99.90;;;;;;5095623;28;20483;-87
2023/09/22 09:38:19;;;;;;;4.00;0.83;;;16.90;99.90;;;;;;5060483;28;20513;-87
2023/09/22 09:40:45;;;;;;;1.63;0.87;;;17.00;99.90;;;;;;5060553;28;20442;-87
2023/09/22 09:43:12;;;;;;;1.83;0.90;;;16.90;99.90;;;;;;5060323;28;20418;-87
2023/09/22 09:45:47;;;;;;;1.50;1.00;;;16.80;99.90;;;;;;5077246;28;20441;-86
2023/09/22 09:48:16;;;;;;;1.23;1.03;;;16.70;99.90;;;;;;5077240;28;20418;-86
2023/09/22 09:50:50;;;;;;;2.97;1.10;;;16.80;99.90;;;;;;5096543;28;20966;-85
2023/09/22 09:53:36;;;;;;;3.43;0.73;;;16.70;99.90;;;;;;5094880;28;20465;-87
2023/09/22 09:56:03;;;;;;;1.67;0.97;;;16.80;99.90;;;;;;5077545;28;20738;-86
2023/09/22 09:58:31;;;;;;;1.30;1.00;;;16.90;99.90;;;;;;5076317;28;21070;-86
2023/09/22 10:00:58;;;;;;;2.17;0.90;;;16.90;99.90;;;;;;5076534;28;20426;-87
2023/09/22 10:03:25;;;;;;;1.63;1.07;;;17.30;99.90;;;;;;5080656;28;20401;-89
2023/09/22 10:05:52;;;;;;;1.50;0.80;;;18.30;99.90;;;;;;5056504;28;20954;-86
2023/09/22 10:08:26;;;;;;;1.43;1.00;;;18.80;99.90;;;;;;5056315;28;20407;-87
2023/09/22 10:10:58;;;;;;;1.13;0.80;;;19.50;99.90;;;;;;5056370;28;20426;-87
2023/09/22 10:13:24;;;;;;;1.30;1.07;;;19.10;99.90;;;;;;5073778;28;20451;-88
2023/09/22 10:15:49;;;;;;;3.03;1.40;;;18.70;99.90;;;;;;5056705;28;20423;-87
2023/09/22 10:18:17;;;;;;;3.13;1.00;;;18.30;99.90;;;;;;5056194;28;20177;-86
2023/09/22 10:20:47;;;;;;;1.70;0.80;;;18.30;99.90;;;;;;5039840;28;20184;-86
2023/09/22 10:23:17;;;;;;;2.60;0.97;;;18.10;99.90;;;;;;5039784;28;20502;-86
2023/09/22 10:26:03;;;;;;;1.37;1.00;;;18.10;99.90;;;;;;5073711;28;20818;-86
2023/09/22 10:28:29;;;;;;;1.33;1.10;;;18.20;99.90;;;;;;5055168;28;20434;-87
2023/09/22 10:31:03;;;;;;;2.40;0.90;;;18.10;99.90;;;;;;5039309;28;20933;-86
2023/09/22 10:33:32;;;;;;;2.07;0.80;;;17.90;99.90;;;;;;5055610;28;20212;-86
2023/09/22 10:36:00;;;;;;;1.30;0.70;;;18.40;99.90;;;;;;5039559;28;20470;-87
2023/09/22 10:38:26;;;;;;;3.57;0.90;;;19.50;99.90;;;;;;5055748;28;20415;-87
2023/09/22 10:41:01;;;;;;;1.90;1.10;;;19.80;99.90;;;;;;5055667;28;20882;-88
2023/09/22 10:43:32;;;;;;;5.03;1.00;;;19.80;99.90;;;;;;5073700;28;20505;-87
2023/09/22 10:45:59;;;;;;;0.93;0.83;;;19.70;99.90;;;;;;5040642;28;20404;-87
2023/09/22 10:48:32;;;;;;;1.40;0.77;;;19.70;99.90;;;;;;5055710;28;20502;-86
2023/09/22 10:50:57;;;;;;;1.77;1.00;;;19.20;99.90;;;;;;5056212;28;20385;-87
2023/09/22 10:53:23;;;;;;;3.20;0.97;;;19.30;99.90;;;;;;5058471;28;20996;-86
2023/09/22 10:55:49;;;;;;;3.30;1.50;;;19.00;99.90;;;;;;5063940;28;20188;-86
2023/09/22 10:58:18;;;;;;;3.07;1.17;;;19.20;99.90;;;;;;5056903;28;20177;-87
2023/09/22 11:01:08;;;;;;;2.20;0.90;;;19.30;99.90;;;;;;5056299;28;20498;-87
2023/09/22 11:03:35;;;;;;;1.43;0.87;;;19.50;99.90;;;;;;5074386;28;20414;-88
2023/09/22 11:06:06;;;;;;;2.10;1.00;;;19.60;99.90;;;;;;5055710;28;20398;-86
2023/09/22 11:08:33;;;;;;;2.37;1.10;;;19.90;99.90;;;;;;5057786;28;20461;-87
2023/09/22 11:10:59;;;;;;;3.40;1.17;;;20.00;99.90;;;;;;5073483;28;20411;-88
2023/09/22 11:13:26;;;;;;;1.63;0.90;;;19.80;99.90;;;;;;5055433;28;20824;-87
2023/09/22 11:16:01;;;;;;;2.40;1.20;;;19.80;99.90;;;;;;5073593;28;20439;-90
2023/09/22 11:18:28;;;;;;;2.33;1.10;;;20.10;99.90;;;;;;5071810;28;20791;-87
2023/09/22 11:21:02;;;;;;;1.63;1.00;;;20.10;99.90;;;;;;5073509;28;20875;-88
2023/09/22 11:23:28;;;;;;;1.97;1.13;;;19.90;99.90;;;;;;5081068;28;20441;-88
2023/09/22 11:26:08;;;;;;;1.40;1.10;;;20.10;99.90;;;;;;5058975;28;20397;-88
2023/09/22 11:28:36;;;;;;;2.97;1.03;;;20.20;99.90;;;;;;5059298;28;20521;-88
2023/09/22 11:31:12;;;;;;;2.03;1.27;;;20.00;99.90;;;;;;5075782;28;20392;-88
2023/09/22 11:33:39;;;;;;;2.87;1.23;;;20.00;99.90;;;;;;5075341;28;20447;-89
2023/09/22 11:36:07;;;;;;;1.60;1.03;;;20.60;99.90;;;;;;5093534;28;20475;-87
2023/09/22 11:38:34;;;;;;;3.20;1.10;;;20.80;99.90;;;;;;5075618;28;20401;-88
2023/09/22 11:41:17;;;;;;;2.93;1.00;;;20.90;99.90;;;;;;5075454;28;20393;-88
2023/09/22 11:43:44;;;;;;;1.53;1.10;;;20.20;99.90;;;;;;5075474;28;20396;-88
2023/09/22 11:46:12;;;;;;;3.37;1.07;;;20.50;99.90;;;;;;5075726;28;20377;-88
2023/09/22 11:49:13;;;;;;;1.23;0.93;;;20.50;99.90;;;;;;5086084;28;20423;-87
2023/09/22 11:51:57;;;;;;;1.87;1.43;;;20.50;99.90;;;;;;5085168;28;20412;-87
2023/09/22 11:54:25;;;;;;;1.43;0.97;;;20.50;99.90;;;;;;5093323;28;20512;-87
2023/09/22 11:56:54;;;;;;;1.63;1.00;;;20.30;99.90;;;;;;5094880;28;20410;-87
2023/09/22 11:59:21;;;;;;;1.40;0.90;;;20.80;99.90;;;;;;5059813;28;20934;-90
2023/09/22 12:01:49;;;;;;;1.47;1.10;;;20.80;99.90;;;;;;5081877;28;20418;-86
2023/09/22 12:04:16;;;;;;;1.90;1.10;;;20.80;99.90;;;;;;5079091;28;20441;-87
2023/09/22 12:06:41;;;;;;;1.10;0.77;;;21.60;99.90;;;;;;5062306;28;20404;-88
2023/09/22 12:09:08;;;;;;;3.00;1.23;;;21.60;99.90;;;;;;5061533;28;20417;-89
2023/09/22 12:11:35;;;;;;;3.20;1.20;;;21.70;99.90;;;;;;5058796;28;20181;-89
2023/09/22 12:14:00;;;;;;;1.37;1.07;;;21.70;99.90;;;;;;5058596;28;20429;-89
2023/09/22 12:16:27;;;;;;;3.07;1.20;;;21.70;99.90;;;;;;5058175;28;20906;-88
2023/09/22 12:18:52;;;;;;;2.03;1.13;;;21.80;99.90;;;;;;5041737;28;20200;-88
2023/09/22 12:21:19;;;;;;;1.60;1.10;;;21.70;99.90;;;;;;5040987;28;20974;-88
2023/09/22 12:23:44;;;;;;;2.23;1.00;;;21.30;99.90;;;;;;5042184;28;20246;-88
2023/09/22 12:26:10;;;;;;;3.63;1.10;;;21.20;99.90;;;;;;5058517;28;20397;-88
2023/09/22 12:28:36;;;;;;;1.60;1.00;;;21.10;99.90;;;;;;5041692;28;20252;-88
2023/09/22 12:31:02;;;;;;;1.20;0.83;;;20.80;99.90;;;;;;5058129;28;20204;-87
2023/09/22 12:33:28;;;;;;;1.80;1.10;;;20.70;99.90;;;;;;5057641;28;20501;-88
2023/09/22 12:35:54;;;;;;;1.73;0.80;;;20.70;99.90;;;;;;5061820;28;20192;-88
2023/09/22 12:38:22;;;;;;;2.00;1.30;;;20.90;99.90;;;;;;5078422;28;20933;-88
2023/09/22 12:40:47;;;;;;;2.33;0.97;;;21.90;99.90;;;;;;5095961;28;20441;-89
2023/09/22 12:43:13;;;;;;;1.67;0.97;;;22.60;99.90;;;;;;5077776;28;20469;-89
2023/09/22 12:45:39;;;;;;;2.67;1.00;;;22.70;99.90;;;;;;5077577;28;20192;-89